Time;durP1;ratioP1;P1;durP2;ratioP2;P2;SDS_P1;SDS_P2;PMS_P1;PMS_P2;Temp;Humidity;BMP_temperature;BMP_pressure;BME280_temperature;BME280_humidity;BME280_pressure;Samples;Min_cycle;Max_cycle;Signal;HPM_P1;HPM_P2
2022/03/19 00:00:53;;;;;;;26.80;6.00;;;;;;;;;;4829849;29;20046;-60
2022/03/19 00:03:20;;;;;;;23.17;5.72;;;;;;;;;;4812737;29;20484;-60
2022/03/19 00:05:46;;;;;;;24.25;5.47;;;;;;;;;;4813432;29;20047;-60
2022/03/19 00:08:13;;;;;;;20.27;4.68;;;;;;;;;;4827695;29;20051;-61
2022/03/19 00:10:39;;;;;;;21.20;5.10;;;;;;;;;;4810344;29;20057;-61
2022/03/19 00:13:05;;;;;;;22.95;5.15;;;;;;;;;;4840610;29;20114;-61
2022/03/19 00:15:31;;;;;;;20.95;4.88;;;;;;;;;;4826512;29;20069;-61
2022/03/19 00:17:57;;;;;;;23.83;5.18;;;;;;;;;;4826385;29;20054;-61
2022/03/19 00:20:23;;;;;;;20.52;4.68;;;;;;;;;;4840664;29;20051;-62
2022/03/19 00:22:50;;;;;;;17.85;4.72;;;;;;;;;;4826402;29;20050;-60
2022/03/19 00:25:16;;;;;;;;;;;;;;;;;;4826768;29;20054;-59
2022/03/19 00:27:42;;;;;;;24.30;4.82;;;;;;;;;;4810550;29;19924;-61
2022/03/19 00:30:09;;;;;;;20.67;4.55;;;;;;;;;;4826618;29;20050;-61
2022/03/19 00:32:36;;;;;;;24.08;5.13;;;;;;;;;;4826269;29;20103;-60
2022/03/19 00:35:05;;;;;;;20.55;4.72;;;;;;;;;;4826092;29;20130;-61
2022/03/19 00:37:32;;;;;;;;;;;;;;;;;;4826544;29;20415;-60
2022/03/19 00:39:58;;;;;;;22.65;4.93;;;;;;;;;;4826153;29;19960;-61
2022/03/19 00:42:24;;;;;;;22.63;5.13;;;;;;;;;;4809767;29;20141;-60
2022/03/19 00:44:50;;;;;;;23.65;5.03;;;;;;;;;;4826675;29;20054;-61
2022/03/19 00:47:16;;;;;;;20.17;5.18;;;;;;;;;;4809986;29;20488;-61
2022/03/19 00:49:42;;;;;;;18.45;4.85;;;;;;;;;;4825896;29;20137;-60
2022/03/19 00:52:09;;;;;;;23.73;5.15;;;;;;;;;;4809545;29;20491;-60
2022/03/19 00:54:35;;;;;;;19.45;4.60;;;;;;;;;;4825857;29;20076;-60
2022/03/19 00:57:01;;;;;;;19.58;4.32;;;;;;;;;;4825790;29;20443;-60
2022/03/19 00:59:27;;;;;;;23.38;4.78;;;;;;;;;;4840081;29;20116;-61
2022/03/19 01:01:53;;;;;;;22.45;4.70;;;;;;;;;;4825989;29;20285;-60
2022/03/19 01:04:19;;;;;;;19.67;4.60;;;;;;;;;;4826071;29;20069;-60
2022/03/19 01:06:45;;;;;;;20.40;5.00;;;;;;;;;;4839820;29;20062;-61
2022/03/19 01:09:11;;;;;;;18.75;4.80;;;;;;;;;;4824680;29;20057;-61
2022/03/19 01:11:37;;;;;;;21.95;4.45;;;;;;;;;;4825640;29;20129;-61
2022/03/19 01:14:03;;;;;;;22.73;5.28;;;;;;;;;;4826236;29;20054;-61
2022/03/19 01:16:29;;;;;;;25.10;4.80;;;;;;;;;;4839876;29;20058;-61
2022/03/19 01:18:55;;;;;;;20.40;4.97;;;;;;;;;;4826161;29;20080;-61
2022/03/19 01:21:21;;;;;;;22.45;4.53;;;;;;;;;;4808942;29;20106;-61
2022/03/19 01:23:47;;;;;;;21.08;5.25;;;;;;;;;;4825687;29;20373;-61
2022/03/19 01:26:13;;;;;;;18.45;4.88;;;;;;;;;;4825305;29;20194;-61
2022/03/19 01:28:39;;;;;;;20.38;4.90;;;;;;;;;;4825371;29;20050;-61
2022/03/19 01:31:06;;;;;;;24.40;5.43;;;;;;;;;;4825212;29;20046;-61
2022/03/19 01:33:32;;;;;;;20.15;5.38;;;;;;;;;;4825546;29;20346;-61
2022/03/19 01:35:58;;;;;;;19.48;5.25;;;;;;;;;;4825299;29;20050;-61
2022/03/19 01:38:24;;;;;;;27.95;5.80;;;;;;;;;;4839029;29;20057;-60
2022/03/19 01:40:50;;;;;;;20.58;5.22;;;;;;;;;;4825879;29;20050;-60
2022/03/19 01:43:16;;;;;;;20.38;5.45;;;;;;;;;;4825099;29;20061;-60
2022/03/19 01:45:42;;;;;;;22.55;5.32;;;;;;;;;;4825152;29;20049;-60
2022/03/19 01:48:08;;;;;;;19.90;5.72;;;;;;;;;;4825213;29;20081;-60
2022/03/19 01:50:34;;;;;;;22.85;5.00;;;;;;;;;;4824704;29;20500;-61
2022/03/19 01:53:00;;;;;;;24.52;5.38;;;;;;;;;;4839894;29;20046;-61
2022/03/19 01:55:27;;;;;;;26.13;6.05;;;;;;;;;;4839395;29;20133;-61
2022/03/19 01:57:54;;;;;;;24.92;5.88;;;;;;;;;;4824911;29;20491;-61
2022/03/19 02:00:22;;;;;;;26.27;5.53;;;;;;;;;;4824947;29;20050;-61
2022/03/19 02:02:49;;;;;;;21.98;5.63;;;;;;;;;;4809044;29;20113;-61
2022/03/19 02:05:17;;;;;;;20.83;5.47;;;;;;;;;;4825250;29;20061;-61
2022/03/19 02:07:43;;;;;;;23.08;5.68;;;;;;;;;;4825220;29;20102;-61
2022/03/19 02:10:10;;;;;;;21.20;5.38;;;;;;;;;;4825044;29;20125;-61
2022/03/19 02:12:36;;;;;;;24.35;5.15;;;;;;;;;;4824785;29;20080;-61
2022/03/19 02:15:04;;;;;;;24.10;5.13;;;;;;;;;;4825017;29;20055;-60
2022/03/19 02:17:30;;;;;;;28.23;5.88;;;;;;;;;;4824652;29;20213;-60
2022/03/19 02:19:57;;;;;;;19.10;4.65;;;;;;;;;;4824664;29;20054;-60
2022/03/19 02:22:27;;;;;;;21.00;5.32;;;;;;;;;;4838399;29;20564;-61
2022/03/19 02:27:38;;;;;;;25.40;5.40;;;;;;;;;;4838728;29;20069;-61
2022/03/19 02:30:04;;;;;;;;;;;;;;;;;;4824828;29;20055;-61
2022/03/19 02:32:30;;;;;;;24.67;6.65;;;;;;;;;;4824255;29;20243;-61
2022/03/19 02:34:56;;;;;;;;;;;;;;;;;;4838971;29;20194;-61
2022/03/19 02:37:22;;;;;;;19.48;5.88;;;;;;;;;;4807920;29;20375;-61
2022/03/19 02:39:49;;;;;;;26.55;7.05;;;;;;;;;;4824399;29;20065;-61
2022/03/19 02:42:19;;;;;;;23.13;6.05;;;;;;;;;;4824283;29;20046;-60
2022/03/19 02:44:46;;;;;;;21.35;6.22;;;;;;;;;;4824320;29;20054;-61
2022/03/19 02:47:12;;;;;;;23.33;6.28;;;;;;;;;;4838680;29;20065;-60
2022/03/19 02:49:38;;;;;;;25.73;7.60;;;;;;;;;;4823760;29;20062;-60
2022/03/19 02:52:04;;;;;;;22.67;6.28;;;;;;;;;;4838504;29;20042;-61
2022/03/19 02:54:31;;;;;;;21.63;5.97;;;;;;;;;;4824843;29;20054;-61
2022/03/19 02:56:58;;;;;;;25.77;5.90;;;;;;;;;;4808955;29;20109;-61
2022/03/19 02:59:25;;;;;;;22.33;6.45;;;;;;;;;;4825308;29;20051;-61
2022/03/19 03:01:52;;;;;;;25.67;6.30;;;;;;;;;;4824545;29;20058;-61
2022/03/19 03:04:18;;;;;;;24.25;6.82;;;;;;;;;;4824819;29;20153;-61
2022/03/19 03:06:47;;;;;;;26.38;7.00;;;;;;;;;;4824546;29;20089;-63
2022/03/19 03:09:13;;;;;;;22.10;5.97;;;;;;;;;;4824427;29;20050;-61
2022/03/19 03:11:39;;;;;;;;;;;;;;;;;;4824777;29;20049;-61
2022/03/19 03:14:06;;;;;;;23.40;6.80;;;;;;;;;;4824548;29;19929;-61
2022/03/19 03:16:33;;;;;;;31.13;7.40;;;;;;;;;;4824345;29;20496;-61
2022/03/19 03:19:01;;;;;;;23.00;7.45;;;;;;;;;;4824448;29;20062;-61
2022/03/19 03:21:27;;;;;;;24.95;6.80;;;;;;;;;;4824560;29;20104;-61
2022/03/19 03:23:54;;;;;;;30.52;7.60;;;;;;;;;;4838963;29;20114;-61
2022/03/19 03:26:20;;;;;;;28.00;7.50;;;;;;;;;;4838404;29;20146;-60
2022/03/19 03:28:47;;;;;;;20.58;6.97;;;;;;;;;;4824370;29;20065;-60
2022/03/19 03:31:14;;;;;;;24.10;7.35;;;;;;;;;;4824168;29;20077;-60
2022/03/19 03:33:41;;;;;;;27.38;8.50;;;;;;;;;;4838260;29;20057;-61
2022/03/19 03:36:07;;;;;;;27.42;8.23;;;;;;;;;;4824241;29;20054;-60
2022/03/19 03:38:33;;;;;;;23.15;8.02;;;;;;;;;;4824129;29;20057;-61
2022/03/19 03:40:59;;;;;;;29.58;7.75;;;;;;;;;;4824189;29;20046;-61
2022/03/19 03:43:25;;;;;;;27.92;8.23;;;;;;;;;;4825756;29;20055;-61
2022/03/19 03:45:51;;;;;;;30.40;9.07;;;;;;;;;;4841714;29;20050;-60
2022/03/19 03:48:18;;;;;;;26.65;8.35;;;;;;;;;;4827305;29;20061;-60
2022/03/19 03:50:45;;;;;;;26.10;8.35;;;;;;;;;;4828036;29;20057;-60
2022/03/19 03:53:11;;;;;;;22.60;8.52;;;;;;;;;;4827330;29;20054;-61
2022/03/19 03:55:38;;;;;;;27.05;8.88;;;;;;;;;;4827689;29;20054;-61
2022/03/19 03:58:04;;;;;;;27.98;9.13;;;;;;;;;;4827230;29;20058;-61
2022/03/19 04:00:34;;;;;;;26.38;8.93;;;;;;;;;;4827104;29;20129;-61
2022/03/19 04:03:00;;;;;;;32.92;9.60;;;;;;;;;;4827057;29;20391;-61
2022/03/19 04:05:26;;;;;;;27.40;9.60;;;;;;;;;;4841987;29;20368;-61
2022/03/19 04:07:54;;;;;;;33.05;8.85;;;;;;;;;;4827054;29;20110;-61
2022/03/19 04:10:20;;;;;;;29.92;10.18;;;;;;;;;;4826801;29;20050;-61
2022/03/19 04:12:46;;;;;;;26.23;9.27;;;;;;;;;;4827534;29;20498;-61
2022/03/19 04:15:12;;;;;;;26.35;10.20;;;;;;;;;;4826973;29;20061;-59
2022/03/19 04:17:40;;;;;;;27.70;9.07;;;;;;;;;;4826833;29;20062;-61
2022/03/19 04:20:07;;;;;;;33.38;10.07;;;;;;;;;;4826918;29;20050;-61
2022/03/19 04:22:40;;;;;;;21.35;9.05;;;;;;;;;;4827046;29;20484;-62
2022/03/19 04:25:11;;;;;;;28.55;10.38;;;;;;;;;;4826811;29;20054;-61
2022/03/19 04:27:38;;;;;;;29.10;10.82;;;;;;;;;;4827573;29;20349;-61
2022/03/19 04:30:04;;;;;;;27.52;10.70;;;;;;;;;;4826663;29;20058;-61
2022/03/19 04:32:30;;;;;;;29.80;11.27;;;;;;;;;;4841775;29;20488;-61
2022/03/19 04:34:57;;;;;;;27.52;10.30;;;;;;;;;;4826720;29;20050;-61
2022/03/19 04:37:26;;;;;;;27.08;10.98;;;;;;;;;;4810550;29;20137;-62
2022/03/19 04:39:52;;;;;;;32.35;11.18;;;;;;;;;;4826627;29;20051;-61
2022/03/19 04:42:18;;;;;;;32.10;11.73;;;;;;;;;;4826567;29;20058;-60
2022/03/19 04:44:44;;;;;;;30.63;11.07;;;;;;;;;;4825684;29;20112;-60
2022/03/19 04:47:10;;;;;;;30.25;11.20;;;;;;;;;;4841112;29;20061;-60
2022/03/19 04:49:36;;;;;;;35.55;12.07;;;;;;;;;;4826867;29;20456;-61
2022/03/19 04:52:02;;;;;;;31.35;12.20;;;;;;;;;;4826356;29;20399;-60
2022/03/19 04:54:28;;;;;;;31.65;12.02;;;;;;;;;;4826163;29;20051;-60
2022/03/19 04:56:54;;;;;;;29.17;11.02;;;;;;;;;;4826861;29;20059;-62
2022/03/19 04:59:21;;;;;;;29.00;11.82;;;;;;;;;;4826336;29;20054;-61
2022/03/19 05:01:47;;;;;;;29.92;11.57;;;;;;;;;;4826733;29;20384;-61
2022/03/19 05:04:13;;;;;;;33.78;11.70;;;;;;;;;;4826451;29;20407;-61
2022/03/19 05:06:39;;;;;;;32.05;12.07;;;;;;;;;;4826090;29;20142;-61
2022/03/19 05:11:50;;;;;;;27.55;10.93;;;;;;;;;;4810427;29;20046;-60
2022/03/19 05:14:16;;;;;;;30.33;11.32;;;;;;;;;;4825747;29;20560;-60
2022/03/19 05:16:42;;;;;;;26.95;10.75;;;;;;;;;;4825970;29;20137;-61
2022/03/19 05:19:08;;;;;;;;;;;;;;;;;;4810249;29;20062;-61
2022/03/19 05:21:35;;;;;;;34.17;12.20;;;;;;;;;;4826379;29;19924;-61
2022/03/19 05:24:01;;;;;;;28.80;12.18;;;;;;;;;;4825962;29;20054;-61
2022/03/19 05:26:27;;;;;;;30.77;12.13;;;;;;;;;;4840637;29;20049;-60
2022/03/19 05:28:55;;;;;;;27.52;10.55;;;;;;;;;;4825142;29;20503;-60
2022/03/19 05:31:21;;;;;;;29.90;12.45;;;;;;;;;;4808670;29;20054;-60
2022/03/19 05:36:31;;;;;;;27.63;11.80;;;;;;;;;;4825027;29;20072;-61
2022/03/19 05:38:58;;;;;;;32.05;13.25;;;;;;;;;;4824508;29;20058;-61
2022/03/19 05:41:24;;;;;;;29.23;12.07;;;;;;;;;;4838307;29;20488;-60
2022/03/19 05:43:50;;;;;;;31.25;11.82;;;;;;;;;;4838072;29;20046;-61
2022/03/19 05:46:16;;;;;;;32.33;10.98;;;;;;;;;;4823224;29;20103;-59
2022/03/19 05:48:42;;;;;;;32.70;12.13;;;;;;;;;;4822488;29;20058;-60
2022/03/19 05:51:08;;;;;;;33.58;13.75;;;;;;;;;;4823547;29;20129;-60
2022/03/19 05:53:34;;;;;;;27.55;12.00;;;;;;;;;;4823207;29;20069;-60
2022/03/19 05:56:01;;;;;;;34.75;13.73;;;;;;;;;;4823580;29;20054;-61
2022/03/19 05:58:27;;;;;;;35.72;14.30;;;;;;;;;;4837210;29;20057;-60
2022/03/19 06:00:53;;;;;;;30.55;12.13;;;;;;;;;;4823024;29;20050;-61
2022/03/19 06:03:19;;;;;;;29.75;13.25;;;;;;;;;;4823733;29;20062;-61
2022/03/19 06:05:45;;;;;;;32.83;13.57;;;;;;;;;;4836573;29;20077;-61
2022/03/19 06:08:11;;;;;;;35.03;14.23;;;;;;;;;;4822653;29;20080;-61
2022/03/19 06:10:37;;;;;;;;;;;;;;;;;;4822764;29;20559;-61
2022/03/19 06:13:03;;;;;;;38.58;15.40;;;;;;;;;;4823207;29;20015;-61
2022/03/19 06:15:29;;;;;;;31.92;14.02;;;;;;;;;;4837073;29;20050;-61
2022/03/19 06:17:55;;;;;;;30.92;14.05;;;;;;;;;;4822915;29;20094;-62
2022/03/19 06:20:23;;;;;;;32.00;15.20;;;;;;;;;;4822956;29;20069;-61
2022/03/19 06:22:49;;;;;;;34.40;14.55;;;;;;;;;;4823005;29;20130;-61
2022/03/19 06:25:15;;;;;;;36.58;14.38;;;;;;;;;;4837134;29;20058;-61
2022/03/19 06:27:41;;;;;;;37.97;14.23;;;;;;;;;;4823096;29;20488;-60
2022/03/19 06:30:08;;;;;;;32.15;14.52;;;;;;;;;;4822393;29;20472;-60
2022/03/19 06:32:34;;;;;;;;;;;;;;;;;;4837030;29;20050;-60
2022/03/19 06:35:02;;;;;;;34.00;14.73;;;;;;;;;;4806586;29;19925;-61
2022/03/19 06:37:29;;;;;;;32.85;14.25;;;;;;;;;;4823313;29;20069;-61
2022/03/19 06:39:57;;;;;;;33.33;13.90;;;;;;;;;;4822506;29;20480;-60
2022/03/19 06:42:25;;;;;;;34.28;13.55;;;;;;;;;;4806342;29;20061;-61
2022/03/19 06:44:52;;;;;;;27.52;12.13;;;;;;;;;;4822627;29;20054;-61
2022/03/19 06:47:18;;;;;;;32.95;12.70;;;;;;;;;;4822886;29;20090;-60
2022/03/19 06:49:44;;;;;;;31.25;12.07;;;;;;;;;;4836718;29;20061;-61
2022/03/19 06:52:10;;;;;;;30.33;11.68;;;;;;;;;;4836343;29;20047;-61
2022/03/19 06:54:37;;;;;;;29.10;11.90;;;;;;;;;;4822461;29;20053;-62
2022/03/19 06:57:03;;;;;;;37.92;12.23;;;;;;;;;;4791313;29;20050;-61
2022/03/19 06:59:30;;;;;;;32.67;11.75;;;;;;;;;;4822467;29;20063;-61
2022/03/19 07:01:57;;;;;;;27.38;10.77;;;;;;;;;;4822248;29;20057;-61
2022/03/19 07:04:23;;;;;;;25.33;10.40;;;;;;;;;;4836017;29;20062;-62
2022/03/19 07:06:49;;;;;;;27.02;11.35;;;;;;;;;;4822293;29;20097;-61
2022/03/19 07:09:15;;;;;;;27.42;10.98;;;;;;;;;;4822168;29;20050;-62
2022/03/19 07:11:44;;;;;;;29.20;11.32;;;;;;;;;;4822032;29;20058;-61
2022/03/19 07:14:10;;;;;;;34.63;11.57;;;;;;;;;;4836019;29;20137;-61
2022/03/19 07:16:37;;;;;;;25.83;11.15;;;;;;;;;;4822086;29;20050;-63
2022/03/19 07:19:04;;;;;;;27.85;11.30;;;;;;;;;;4824898;29;20050;-62
2022/03/19 07:21:30;;;;;;;24.95;9.80;;;;;;;;;;4825684;29;20055;-62
2022/03/19 07:23:56;;;;;;;31.92;10.45;;;;;;;;;;4809359;29;20153;-62
2022/03/19 07:26:22;;;;;;;27.23;9.65;;;;;;;;;;4794182;29;20511;-62
2022/03/19 07:28:48;;;;;;;26.55;9.45;;;;;;;;;;4809275;29;20388;-62
2022/03/19 07:31:15;;;;;;;29.23;10.23;;;;;;;;;;4809054;29;20089;-62
2022/03/19 07:33:41;;;;;;;26.52;9.73;;;;;;;;;;4825966;29;20175;-63
2022/03/19 07:36:09;;;;;;;23.23;8.50;;;;;;;;;;4825123;29;20464;-61
2022/03/19 07:38:35;;;;;;;26.92;10.10;;;;;;;;;;4825229;29;20578;-60
2022/03/19 07:43:46;;;;;;;26.40;10.02;;;;;;;;;;4808741;29;20058;-61
2022/03/19 07:46:13;;;;;;;30.63;10.05;;;;;;;;;;4809043;29;20054;-61
2022/03/19 07:48:39;;;;;;;26.90;9.32;;;;;;;;;;4824655;29;20419;-59
2022/03/19 07:51:06;;;;;;;24.13;8.73;;;;;;;;;;4808931;29;20051;-60
2022/03/19 07:53:32;;;;;;;23.95;8.85;;;;;;;;;;4825072;29;20086;-60
2022/03/19 07:55:58;;;;;;;24.63;8.38;;;;;;;;;;4839106;29;20062;-60
2022/03/19 07:58:24;;;;;;;27.00;8.85;;;;;;;;;;4839132;29;20054;-60
2022/03/19 08:00:50;;;;;;;32.00;9.05;;;;;;;;;;4824788;29;20050;-61
2022/03/19 08:03:16;;;;;;;25.17;7.68;;;;;;;;;;4824783;29;20145;-60
2022/03/19 08:05:42;;;;;;;22.63;8.60;;;;;;;;;;4839623;29;20054;-61
2022/03/19 08:08:08;;;;;;;25.83;8.43;;;;;;;;;;4825086;29;20065;-60
2022/03/19 08:10:38;;;;;;;24.77;8.13;;;;;;;;;;4824669;29;20544;-62
2022/03/19 08:13:08;;;;;;;22.35;7.82;;;;;;;;;;4824015;29;20481;-61
2022/03/19 08:15:37;;;;;;;24.95;8.18;;;;;;;;;;4824206;29;20050;-61
2022/03/19 08:18:04;;;;;;;23.35;8.07;;;;;;;;;;4824303;29;20062;-61
2022/03/19 08:20:31;;;;;;;28.60;9.25;;;;;;;;;;4824363;29;20093;-61
2022/03/19 08:23:00;;;;;;;26.80;7.68;;;;;;;;;;4824500;29;20050;-60
2022/03/19 08:25:26;;;;;;;24.13;8.38;;;;;;;;;;4824216;29;20472;-61
2022/03/19 08:27:54;;;;;;;27.63;8.63;;;;;;;;;;4824454;29;20376;-61
2022/03/19 08:30:22;;;;;;;26.33;7.80;;;;;;;;;;4823448;29;20118;-61
2022/03/19 08:32:48;;;;;;;25.52;7.28;;;;;;;;;;4824420;29;20496;-61
2022/03/19 08:35:14;;;;;;;27.30;7.75;;;;;;;;;;4808413;29;20516;-61
2022/03/19 08:37:43;;;;;;;25.73;7.78;;;;;;;;;;4824419;29;20053;-61
2022/03/19 08:40:15;;;;;;;24.90;7.60;;;;;;;;;;4793247;29;20184;-61
2022/03/19 08:42:41;;;;;;;19.17;6.38;;;;;;;;;;4809538;29;20539;-62
2022/03/19 08:45:08;;;;;;;26.65;6.82;;;;;;;;;;4824721;29;20101;-61
2022/03/19 08:47:34;;;;;;;30.50;7.00;;;;;;;;;;4839075;29;20134;-61
2022/03/19 08:50:00;;;;;;;22.48;6.35;;;;;;;;;;4824608;29;20094;-60
2022/03/19 08:52:33;;;;;;;20.25;6.32;;;;;;;;;;4779341;29;20061;-59
2022/03/19 08:55:00;;;;;;;23.50;7.10;;;;;;;;;;4825325;29;20069;-61
2022/03/19 08:57:28;;;;;;;21.90;6.70;;;;;;;;;;4793509;29;20061;-60
2022/03/19 08:59:58;;;;;;;23.80;6.53;;;;;;;;;;4823839;29;20404;-60
2022/03/19 09:02:24;;;;;;;24.30;5.90;;;;;;;;;;4824097;29;20480;-60
2022/03/19 09:04:50;;;;;;;19.13;5.70;;;;;;;;;;4824490;29;20063;-60
2022/03/19 09:07:16;;;;;;;23.92;6.32;;;;;;;;;;4838482;29;20066;-59
2022/03/19 09:09:42;;;;;;;24.85;6.63;;;;;;;;;;4823978;29;20062;-60
2022/03/19 09:12:09;;;;;;;19.83;6.10;;;;;;;;;;4823735;29;20057;-61
2022/03/19 09:14:36;;;;;;;21.45;5.78;;;;;;;;;;4823871;29;20137;-59
2022/03/19 09:17:02;;;;;;;21.98;5.80;;;;;;;;;;4823807;29;20500;-60
2022/03/19 09:19:29;;;;;;;19.92;5.70;;;;;;;;;;4807734;29;20291;-61
2022/03/19 09:21:55;;;;;;;19.20;6.07;;;;;;;;;;4823794;29;20061;-60
2022/03/19 09:24:22;;;;;;;16.35;5.82;;;;;;;;;;4823562;29;20055;-62
2022/03/19 09:26:48;;;;;;;24.27;5.88;;;;;;;;;;4823901;29;20061;-62
2022/03/19 09:29:15;;;;;;;21.25;5.13;;;;;;;;;;4823828;29;20050;-60
2022/03/19 09:31:41;;;;;;;;;;;;;;;;;;4824192;29;20391;-61
2022/03/19 09:34:09;;;;;;;14.85;5.40;;;;;;;;;;4823978;29;20350;-59
2022/03/19 09:36:40;;;;;;;19.48;6.00;;;;;;;;;;4807206;29;20094;-61
2022/03/19 09:39:06;;;;;;;19.38;5.18;;;;;;;;;;4837257;29;20492;-62
2022/03/19 09:41:32;;;;;;;18.63;5.25;;;;;;;;;;4837517;29;20050;-61
2022/03/19 09:43:59;;;;;;;19.90;5.40;;;;;;;;;;4837082;29;20569;-62
2022/03/19 09:46:26;;;;;;;18.73;5.47;;;;;;;;;;4807719;29;20054;-59
2022/03/19 09:48:53;;;;;;;24.08;6.28;;;;;;;;;;4823897;29;20062;-60
2022/03/19 09:51:21;;;;;;;20.98;5.85;;;;;;;;;;4807462;29;20050;-59
2022/03/19 09:53:50;;;;;;;19.23;5.57;;;;;;;;;;4823365;29;20400;-58
2022/03/19 09:56:16;;;;;;;21.80;6.70;;;;;;;;;;4806427;29;20065;-60
2022/03/19 09:58:42;;;;;;;18.40;5.85;;;;;;;;;;4823151;29;20046;-61
2022/03/19 10:01:08;;;;;;;17.15;5.75;;;;;;;;;;4823245;29;20046;-60
2022/03/19 10:03:39;;;;;;;24.52;6.28;;;;;;;;;;4822936;29;20065;-60
2022/03/19 10:08:56;;;;;;;20.58;6.47;;;;;;;;;;4809265;29;20054;-60
2022/03/19 10:11:22;;;;;;;22.40;6.20;;;;;;;;;;4822971;29;20042;-60
2022/03/19 10:13:50;;;;;;;20.48;6.40;;;;;;;;;;4806840;29;20055;-61
2022/03/19 10:16:22;;;;;;;17.55;5.13;;;;;;;;;;4822757;29;20161;-61
2022/03/19 10:19:14;;;;;;;18.02;5.47;;;;;;;;;;4823018;29;20050;-61
2022/03/19 10:21:45;;;;;;;19.55;5.70;;;;;;;;;;4819828;29;20054;-61
2022/03/19 10:24:23;;;;;;;22.55;5.78;;;;;;;;;;4823110;29;20065;-61
2022/03/19 10:26:50;;;;;;;19.05;5.25;;;;;;;;;;4823413;29;20054;-61
2022/03/19 10:29:22;;;;;;;22.52;5.88;;;;;;;;;;4837414;29;20064;-62
2022/03/19 10:31:50;;;;;;;19.95;5.35;;;;;;;;;;4806652;29;20573;-61
2022/03/19 10:34:16;;;;;;;25.10;5.75;;;;;;;;;;4823149;29;20054;-63
2022/03/19 10:36:43;;;;;;;13.27;4.38;;;;;;;;;;4837428;29;20514;-63
2022/03/19 10:39:13;;;;;;;20.02;4.78;;;;;;;;;;4822934;29;20137;-62
2022/03/19 10:41:40;;;;;;;17.85;4.43;;;;;;;;;;4822971;29;20054;-60
2022/03/19 10:44:11;;;;;;;15.43;4.53;;;;;;;;;;4823340;29;20069;-62
2022/03/19 10:46:37;;;;;;;14.85;4.03;;;;;;;;;;4806533;29;20086;-61
2022/03/19 10:49:04;;;;;;;14.38;4.38;;;;;;;;;;4836749;29;20059;-61
2022/03/19 10:51:31;;;;;;;;;;;;;;;;;;4822979;29;20057;-65
2022/03/19 10:53:57;;;;;;;17.30;4.30;;;;;;;;;;4821657;29;19932;-60
2022/03/19 10:56:24;;;;;;;16.27;4.43;;;;;;;;;;4806505;29;20106;-61
2022/03/19 10:58:50;;;;;;;17.95;4.68;;;;;;;;;;4822830;29;20488;-59
2022/03/19 11:01:17;;;;;;;19.90;4.38;;;;;;;;;;4822610;29;20058;-61
2022/03/19 11:03:43;;;;;;;;;;;;;;;;;;4822682;29;20061;-61
2022/03/19 11:06:10;;;;;;;16.77;4.30;;;;;;;;;;4822245;29;20396;-61
2022/03/19 11:08:43;;;;;;;18.73;3.70;;;;;;;;;;4806268;29;20154;-61
2022/03/19 11:11:23;;;;;;;15.82;4.25;;;;;;;;;;4823465;29;20061;-61
2022/03/19 11:13:49;;;;;;;13.02;3.20;;;;;;;;;;4822877;29;20062;-60
2022/03/19 11:16:16;;;;;;;13.20;3.67;;;;;;;;;;4822712;29;20054;-61
2022/03/19 11:18:43;;;;;;;13.93;3.33;;;;;;;;;;4821603;29;20443;-60
2022/03/19 11:21:10;;;;;;;12.55;3.10;;;;;;;;;;4822421;29;20089;-61
2022/03/19 11:23:46;;;;;;;12.48;3.38;;;;;;;;;;4822670;29;20094;-62
2022/03/19 11:26:14;;;;;;;15.20;3.22;;;;;;;;;;4822501;29;20062;-61
2022/03/19 11:28:40;;;;;;;12.52;3.90;;;;;;;;;;4805981;29;20510;-60
2022/03/19 11:31:09;;;;;;;;;;;;;;;;;;4806244;29;20492;-59
2022/03/19 11:33:36;;;;;;;15.68;3.92;;;;;;;;;;4822262;29;19925;-60
2022/03/19 11:36:04;;;;;;;12.55;3.20;;;;;;;;;;4822079;29;20058;-60
2022/03/19 11:38:31;;;;;;;11.00;3.10;;;;;;;;;;4822085;29;20422;-61
2022/03/19 11:40:58;;;;;;;13.63;3.40;;;;;;;;;;4806033;29;20050;-61
2022/03/19 11:43:24;;;;;;;;;;;;;;;;;;4806521;29;20445;-61
2022/03/19 11:46:03;;;;;;;13.90;3.17;;;;;;;;;;4822236;29;19929;-61
2022/03/19 11:48:38;;;;;;;11.07;2.88;;;;;;;;;;4805988;29;20146;-60
2022/03/19 11:51:19;;;;;;;10.27;2.90;;;;;;;;;;4836123;29;20416;-61
2022/03/19 11:53:53;;;;;;;10.93;2.63;;;;;;;;;;4822586;29;20365;-60
2022/03/19 11:56:23;;;;;;;11.40;3.13;;;;;;;;;;4836529;29;20082;-60
2022/03/19 11:58:49;;;;;;;12.57;3.20;;;;;;;;;;4822031;29;20065;-60
2022/03/19 12:01:16;;;;;;;10.10;3.00;;;;;;;;;;4805581;29;20085;-61
2022/03/19 12:04:01;;;;;;;8.63;2.65;;;;;;;;;;4828637;29;20059;-60
2022/03/19 12:06:31;;;;;;;9.85;2.63;;;;;;;;;;4788369;30;20423;-61
2022/03/19 12:08:57;;;;;;;8.32;2.75;;;;;;;;;;4788846;29;20505;-60
2022/03/19 12:11:23;;;;;;;10.23;2.60;;;;;;;;;;4787749;30;20047;-60
2022/03/19 12:13:50;;;;;;;8.50;2.45;;;;;;;;;;4787776;30;20071;-61
2022/03/19 12:16:35;;;;;;;8.27;2.47;;;;;;;;;;4788731;29;20058;-61
2022/03/19 12:19:01;;;;;;;8.95;2.42;;;;;;;;;;4787436;30;20055;-59
2022/03/19 12:21:27;;;;;;;10.00;2.65;;;;;;;;;;4802699;29;20063;-62
2022/03/19 12:23:56;;;;;;;11.65;2.80;;;;;;;;;;4788489;30;20566;-61
2022/03/19 12:26:23;;;;;;;9.98;3.13;;;;;;;;;;4787965;30;20500;-60
2022/03/19 12:29:00;;;;;;;8.32;2.50;;;;;;;;;;4788033;30;20117;-61
2022/03/19 12:31:31;;;;;;;6.85;2.25;;;;;;;;;;4787741;30;20181;-60
2022/03/19 12:33:57;;;;;;;10.73;2.72;;;;;;;;;;4803070;29;20461;-62
2022/03/19 12:36:23;;;;;;;11.23;2.95;;;;;;;;;;4788481;30;20083;-61
2022/03/19 12:38:50;;;;;;;8.95;2.55;;;;;;;;;;4817498;29;20063;-61
2022/03/19 12:41:29;;;;;;;8.93;3.00;;;;;;;;;;4788574;29;20494;-59
2022/03/19 12:43:59;;;;;;;8.93;2.40;;;;;;;;;;4788644;29;20055;-59
2022/03/19 12:46:26;;;;;;;9.68;2.50;;;;;;;;;;4813286;29;20449;-59
2022/03/19 12:49:00;;;;;;;11.75;2.63;;;;;;;;;;4788815;30;20105;-60
2022/03/19 12:51:37;;;;;;;12.35;2.92;;;;;;;;;;4788732;30;20433;-62
2022/03/19 12:54:24;;;;;;;11.57;2.63;;;;;;;;;;4817004;29;20051;-60
2022/03/19 12:56:51;;;;;;;8.85;2.50;;;;;;;;;;4788128;29;20067;-60
2022/03/19 12:59:21;;;;;;;9.15;2.30;;;;;;;;;;4788045;29;20051;-59
2022/03/19 13:01:48;;;;;;;11.65;3.10;;;;;;;;;;4788363;30;20051;-63
2022/03/19 13:04:20;;;;;;;12.02;2.50;;;;;;;;;;4806368;29;20397;-60
2022/03/19 13:06:46;;;;;;;7.85;2.80;;;;;;;;;;4824378;29;20058;-61
2022/03/19 13:09:12;;;;;;;;;;;;;;;;;;4824328;29;20137;-60
2022/03/19 13:11:47;;;;;;;12.10;3.00;;;;;;;;;;4823883;29;20023;-61
2022/03/19 13:14:14;;;;;;;10.68;2.63;;;;;;;;;;4824039;29;20380;-61
2022/03/19 13:16:41;;;;;;;8.57;2.72;;;;;;;;;;4806931;29;20125;-61
2022/03/19 13:19:08;;;;;;;10.77;2.50;;;;;;;;;;4792841;29;20375;-60
2022/03/19 13:21:35;;;;;;;10.40;2.90;;;;;;;;;;4837890;29;20099;-61
2022/03/19 13:24:02;;;;;;;10.65;2.80;;;;;;;;;;4808393;29;20080;-61
2022/03/19 13:26:32;;;;;;;10.75;2.92;;;;;;;;;;4808168;29;20057;-63
2022/03/19 13:29:12;;;;;;;8.95;2.80;;;;;;;;;;4823969;29;20043;-61
2022/03/19 13:31:51;;;;;;;11.90;2.90;;;;;;;;;;4823722;29;20078;-62
2022/03/19 13:34:21;;;;;;;14.50;3.70;;;;;;;;;;4823065;29;20076;-60
2022/03/19 13:36:52;;;;;;;12.48;3.28;;;;;;;;;;4823881;29;20054;-61
2022/03/19 13:39:20;;;;;;;9.65;3.05;;;;;;;;;;4823706;29;20050;-62
2022/03/19 13:41:46;;;;;;;10.57;3.08;;;;;;;;;;4837622;29;20046;-61
2022/03/19 13:44:12;;;;;;;;;;;;;;;;;;4838259;29;20050;-61
2022/03/19 13:46:38;;;;;;;11.63;2.90;;;;;;;;;;4823462;29;19980;-61
2022/03/19 13:49:17;;;;;;;10.23;3.03;;;;;;;;;;4837621;29;20494;-62
2022/03/19 13:51:44;;;;;;;9.90;2.70;;;;;;;;;;4823372;29;20061;-61
2022/03/19 13:54:10;;;;;;;8.60;2.58;;;;;;;;;;4823381;29;20046;-62
2022/03/19 13:56:48;;;;;;;9.77;2.75;;;;;;;;;;4823595;29;20115;-60
2022/03/19 13:59:30;;;;;;;10.45;2.97;;;;;;;;;;4823614;29;20050;-59
2022/03/19 14:01:56;;;;;;;11.85;2.90;;;;;;;;;;4807305;29;20054;-62
2022/03/19 14:04:26;;;;;;;10.55;3.00;;;;;;;;;;4837164;29;20073;-61
2022/03/19 14:06:55;;;;;;;9.98;2.88;;;;;;;;;;4823329;29;20065;-63
2022/03/19 14:09:26;;;;;;;8.93;2.78;;;;;;;;;;4823273;29;20051;-61
2022/03/19 14:11:53;;;;;;;12.68;3.00;;;;;;;;;;4823295;29;20053;-61
2022/03/19 14:14:19;;;;;;;9.38;2.83;;;;;;;;;;4836500;29;20501;-62
2022/03/19 14:16:45;;;;;;;;;;;;;;;;;;4807023;29;20555;-62
2022/03/19 14:19:11;;;;;;;11.05;3.00;;;;;;;;;;4822948;29;19928;-61
2022/03/19 14:21:40;;;;;;;11.35;3.10;;;;;;;;;;4822627;29;20107;-62
2022/03/19 14:24:06;;;;;;;17.30;3.10;;;;;;;;;;4806890;29;20050;-62
2022/03/19 14:26:32;;;;;;;11.02;2.90;;;;;;;;;;4836447;29;20111;-65
2022/03/19 14:28:58;;;;;;;14.88;2.90;;;;;;;;;;4805889;29;20057;-62
2022/03/19 14:31:24;;;;;;;15.52;2.90;;;;;;;;;;4822769;29;20056;-64
2022/03/19 14:33:50;;;;;;;11.18;3.15;;;;;;;;;;4822651;29;20050;-63
2022/03/19 14:36:19;;;;;;;12.60;3.67;;;;;;;;;;4822558;29;20054;-62
2022/03/19 14:38:50;;;;;;;12.35;2.95;;;;;;;;;;4822635;29;20042;-61
2022/03/19 14:41:18;;;;;;;10.98;2.90;;;;;;;;;;4806909;29;20446;-62
2022/03/19 14:43:46;;;;;;;10.90;2.85;;;;;;;;;;4806494;29;20058;-63
2022/03/19 14:46:12;;;;;;;14.60;3.65;;;;;;;;;;4822649;29;20050;-61
2022/03/19 14:48:40;;;;;;;;;;;;;;;;;;4823030;29;20200;-62